sensor_id;sensor_type;location;lat;lon;timestamp;temperature;humidity
16879;DHT22;8556;52.218;9.884;2023-03-23T00:01:10;13.10;99.90
16879;DHT22;8556;52.218;9.884;2023-03-23T00:03:38;13.10;99.90
16879;DHT22;8556;52.218;9.884;2023-03-23T00:06:06;13.10;99.90
16879;DHT22;8556;52.218;9.884;2023-03-23T00:08:34;13.00;99.90
16879;DHT22;8556;52.218;9.884;2023-03-23T00:11:04;13.10;99.90
16879;DHT22;8556;52.218;9.884;2023-03-23T00:13:33;13.10;99.90
16879;DHT22;8556;52.218;9.884;2023-03-23T00:15:59;13.10;99.90
16879;DHT22;8556;52.218;9.884;2023-03-23T00:18:27;13.10;99.90
16879;DHT22;8556;52.218;9.884;2023-03-23T00:20:59;12.90;99.90
16879;DHT22;8556;52.218;9.884;2023-03-23T00:23:26;13.00;99.90
16879;DHT22;8556;52.218;9.884;2023-03-23T00:25:57;13.00;99.90
16879;DHT22;8556;52.218;9.884;2023-03-23T00:28:26;12.80;99.90
16879;DHT22;8556;52.218;9.884;2023-03-23T00:30:57;12.70;99.90
16879;DHT22;8556;52.218;9.884;2023-03-23T00:33:27;12.60;99.90
16879;DHT22;8556;52.218;9.884;2023-03-23T00:35:54;12.50;99.90
16879;DHT22;8556;52.218;9.884;2023-03-23T00:38:24;12.50;99.90
16879;DHT22;8556;52.218;9.884;2023-03-23T00:40:51;12.30;99.90
16879;DHT22;8556;52.218;9.884;2023-03-23T00:43:20;12.30;99.90
16879;DHT22;8556;52.218;9.884;2023-03-23T00:45:51;12.40;99.90
16879;DHT22;8556;52.218;9.884;2023-03-23T00:48:24;12.30;99.90
16879;DHT22;8556;52.218;9.884;2023-03-23T00:50:52;12.30;99.90
16879;DHT22;8556;52.218;9.884;2023-03-23T00:53:19;12.40;99.90
16879;DHT22;8556;52.218;9.884;2023-03-23T00:55:48;12.50;99.90
16879;DHT22;8556;52.218;9.884;2023-03-23T00:58:18;12.50;99.90
16879;DHT22;8556;52.218;9.884;2023-03-23T01:00:45;12.40;99.90
16879;DHT22;8556;52.218;9.884;2023-03-23T01:03:14;12.40;99.90
16879;DHT22;8556;52.218;9.884;2023-03-23T01:05:46;12.40;99.90
16879;DHT22;8556;52.218;9.884;2023-03-23T01:08:28;12.30;99.90
16879;DHT22;8556;52.218;9.884;2023-03-23T01:11:05;12.30;99.90
16879;DHT22;8556;52.218;9.884;2023-03-23T01:13:33;12.30;99.90
16879;DHT22;8556;52.218;9.884;2023-03-23T01:16:02;12.20;99.90
16879;DHT22;8556;52.218;9.884;2023-03-23T01:18:33;12.10;99.90
16879;DHT22;8556;52.218;9.884;2023-03-23T01:21:07;12.00;99.90
16879;DHT22;8556;52.218;9.884;2023-03-23T01:23:39;12.20;99.90
16879;DHT22;8556;52.218;9.884;2023-03-23T01:26:07;12.00;99.90
16879;DHT22;8556;52.218;9.884;2023-03-23T01:28:35;12.00;99.90
16879;DHT22;8556;52.218;9.884;2023-03-23T01:31:04;12.00;99.90
16879;DHT22;8556;52.218;9.884;2023-03-23T01:33:33;12.00;99.90
16879;DHT22;8556;52.218;9.884;2023-03-23T01:36:02;12.00;99.90
16879;DHT22;8556;52.218;9.884;2023-03-23T01:38:30;11.90;99.90
16879;DHT22;8556;52.218;9.884;2023-03-23T01:40:57;12.00;99.90
16879;DHT22;8556;52.218;9.884;2023-03-23T01:43:25;11.90;99.90
16879;DHT22;8556;52.218;9.884;2023-03-23T01:45:53;11.80;99.90
16879;DHT22;8556;52.218;9.884;2023-03-23T01:48:23;11.90;99.90
16879;DHT22;8556;52.218;9.884;2023-03-23T01:50:55;11.80;99.90
16879;DHT22;8556;52.218;9.884;2023-03-23T01:53:28;11.70;99.90
16879;DHT22;8556;52.218;9.884;2023-03-23T01:55:57;11.60;99.90
16879;DHT22;8556;52.218;9.884;2023-03-23T01:58:27;11.70;99.90
16879;DHT22;8556;52.218;9.884;2023-03-23T02:00:59;11.60;99.90
16879;DHT22;8556;52.218;9.884;2023-03-23T02:03:28;11.60;99.90
16879;DHT22;8556;52.218;9.884;2023-03-23T02:05:58;11.50;99.90
16879;DHT22;8556;52.218;9.884;2023-03-23T02:08:32;11.50;99.90
16879;DHT22;8556;52.218;9.884;2023-03-23T02:11:07;11.50;99.90
16879;DHT22;8556;52.218;9.884;2023-03-23T02:13:35;11.50;99.90
16879;DHT22;8556;52.218;9.884;2023-03-23T02:16:06;11.50;99.90
16879;DHT22;8556;52.218;9.884;2023-03-23T02:18:45;11.40;99.90
16879;DHT22;8556;52.218;9.884;2023-03-23T02:21:37;11.60;99.90
16879;DHT22;8556;52.218;9.884;2023-03-23T02:30:46;11.80;99.90
16879;DHT22;8556;52.218;9.884;2023-03-23T02:33:41;11.90;99.90
16879;DHT22;8556;52.218;9.884;2023-03-23T02:36:18;11.90;99.90
16879;DHT22;8556;52.218;9.884;2023-03-23T02:38:54;11.90;99.90
16879;DHT22;8556;52.218;9.884;2023-03-23T02:41:26;11.90;99.90
16879;DHT22;8556;52.218;9.884;2023-03-23T02:43:55;12.00;99.90
16879;DHT22;8556;52.218;9.884;2023-03-23T02:46:24;11.80;99.90
16879;DHT22;8556;52.218;9.884;2023-03-23T02:48:54;11.90;99.90
16879;DHT22;8556;52.218;9.884;2023-03-23T02:51:23;11.80;99.90
16879;DHT22;8556;52.218;9.884;2023-03-23T02:53:52;11.80;99.90
16879;DHT22;8556;52.218;9.884;2023-03-23T02:56:23;11.80;99.90
16879;DHT22;8556;52.218;9.884;2023-03-23T02:58:53;11.70;99.90
16879;DHT22;8556;52.218;9.884;2023-03-23T03:01:49;11.70;99.90
16879;DHT22;8556;52.218;9.884;2023-03-23T03:04:25;11.60;99.90
16879;DHT22;8556;52.218;9.884;2023-03-23T03:09:47;11.50;99.90
16879;DHT22;8556;52.218;9.884;2023-03-23T03:12:26;11.40;99.90
16879;DHT22;8556;52.218;9.884;2023-03-23T03:15:05;11.40;99.90
16879;DHT22;8556;52.218;9.884;2023-03-23T03:17:36;11.40;99.90
16879;DHT22;8556;52.218;9.884;2023-03-23T03:20:13;11.40;99.90
16879;DHT22;8556;52.218;9.884;2023-03-23T03:22:43;11.40;99.90
16879;DHT22;8556;52.218;9.884;2023-03-23T03:25:12;11.40;99.90
16879;DHT22;8556;52.218;9.884;2023-03-23T03:27:46;11.40;99.90
16879;DHT22;8556;52.218;9.884;2023-03-23T03:30:22;11.50;99.90
16879;DHT22;8556;52.218;9.884;2023-03-23T03:32:52;11.40;99.90
16879;DHT22;8556;52.218;9.884;2023-03-23T03:35:22;11.30;99.90
16879;DHT22;8556;52.218;9.884;2023-03-23T03:37:49;11.30;99.90
16879;DHT22;8556;52.218;9.884;2023-03-23T03:40:19;11.20;99.90
16879;DHT22;8556;52.218;9.884;2023-03-23T03:42:46;11.20;99.90
16879;DHT22;8556;52.218;9.884;2023-03-23T03:45:14;11.20;99.90
16879;DHT22;8556;52.218;9.884;2023-03-23T03:47:41;11.20;99.90
16879;DHT22;8556;52.218;9.884;2023-03-23T03:50:09;11.10;99.90
16879;DHT22;8556;52.218;9.884;2023-03-23T03:52:38;11.00;99.90
16879;DHT22;8556;52.218;9.884;2023-03-23T03:55:06;10.90;99.90
16879;DHT22;8556;52.218;9.884;2023-03-23T03:57:33;10.90;99.90
16879;DHT22;8556;52.218;9.884;2023-03-23T04:00:01;10.90;99.90
16879;DHT22;8556;52.218;9.884;2023-03-23T04:02:38;10.80;99.90
16879;DHT22;8556;52.218;9.884;2023-03-23T04:05:06;10.80;99.90
16879;DHT22;8556;52.218;9.884;2023-03-23T04:07:34;11.00;99.90
16879;DHT22;8556;52.218;9.884;2023-03-23T04:10:05;10.90;99.90
16879;DHT22;8556;52.218;9.884;2023-03-23T04:12:32;11.00;99.90
16879;DHT22;8556;52.218;9.884;2023-03-23T04:15:00;11.00;99.90
16879;DHT22;8556;52.218;9.884;2023-03-23T04:17:27;11.00;99.90
16879;DHT22;8556;52.218;9.884;2023-03-23T04:19:54;11.00;99.90
16879;DHT22;8556;52.218;9.884;2023-03-23T04:22:23;11.00;99.90
16879;DHT22;8556;52.218;9.884;2023-03-23T04:24:57;11.10;99.90
16879;DHT22;8556;52.218;9.884;2023-03-23T04:27:27;11.10;99.90
16879;DHT22;8556;52.218;9.884;2023-03-23T04:29:55;11.10;99.90
16879;DHT22;8556;52.218;9.884;2023-03-23T04:32:23;11.10;99.90
16879;DHT22;8556;52.218;9.884;2023-03-23T04:34:54;11.20;99.90
16879;DHT22;8556;52.218;9.884;2023-03-23T04:37:22;11.30;99.90
16879;DHT22;8556;52.218;9.884;2023-03-23T04:39:54;11.20;99.90
16879;DHT22;8556;52.218;9.884;2023-03-23T04:42:27;11.20;99.90
16879;DHT22;8556;52.218;9.884;2023-03-23T04:44:55;11.30;99.90
16879;DHT22;8556;52.218;9.884;2023-03-23T04:47:22;11.20;99.90
16879;DHT22;8556;52.218;9.884;2023-03-23T04:49:48;11.30;99.90
16879;DHT22;8556;52.218;9.884;2023-03-23T04:52:16;11.30;99.90
16879;DHT22;8556;52.218;9.884;2023-03-23T04:54:43;11.20;99.90
16879;DHT22;8556;52.218;9.884;2023-03-23T04:57:10;11.10;99.90
16879;DHT22;8556;52.218;9.884;2023-03-23T04:59:39;11.10;99.90
16879;DHT22;8556;52.218;9.884;2023-03-23T05:02:06;11.20;99.90
16879;DHT22;8556;52.218;9.884;2023-03-23T05:04:33;11.20;99.90
16879;DHT22;8556;52.218;9.884;2023-03-23T05:07:00;11.20;99.90
16879;DHT22;8556;52.218;9.884;2023-03-23T05:09:26;11.20;99.90
16879;DHT22;8556;52.218;9.884;2023-03-23T05:11:53;11.20;99.90
16879;DHT22;8556;52.218;9.884;2023-03-23T05:14:20;11.20;99.90
16879;DHT22;8556;52.218;9.884;2023-03-23T05:16:49;11.30;99.90
16879;DHT22;8556;52.218;9.884;2023-03-23T05:19:17;11.30;99.90
16879;DHT22;8556;52.218;9.884;2023-03-23T05:21:44;11.30;99.90
16879;DHT22;8556;52.218;9.884;2023-03-23T05:24:10;11.40;99.90
16879;DHT22;8556;52.218;9.884;2023-03-23T05:26:38;11.50;99.90
16879;DHT22;8556;52.218;9.884;2023-03-23T05:29:05;11.40;99.90
16879;DHT22;8556;52.218;9.884;2023-03-23T05:31:31;11.50;99.90
16879;DHT22;8556;52.218;9.884;2023-03-23T05:33:59;11.50;99.90
16879;DHT22;8556;52.218;9.884;2023-03-23T05:36:26;11.60;99.90
16879;DHT22;8556;52.218;9.884;2023-03-23T05:38:55;11.50;99.90
16879;DHT22;8556;52.218;9.884;2023-03-23T05:41:22;11.60;99.90
16879;DHT22;8556;52.218;9.884;2023-03-23T05:43:49;11.60;99.90
16879;DHT22;8556;52.218;9.884;2023-03-23T05:46:16;11.60;99.90
16879;DHT22;8556;52.218;9.884;2023-03-23T05:48:43;11.60;99.90
16879;DHT22;8556;52.218;9.884;2023-03-23T05:51:11;11.60;99.90
16879;DHT22;8556;52.218;9.884;2023-03-23T05:53:38;11.60;99.90
16879;DHT22;8556;52.218;9.884;2023-03-23T05:56:05;11.60;99.90
16879;DHT22;8556;52.218;9.884;2023-03-23T05:58:33;11.50;99.90
16879;DHT22;8556;52.218;9.884;2023-03-23T06:01:00;11.50;99.90
16879;DHT22;8556;52.218;9.884;2023-03-23T06:03:27;11.60;99.90
16879;DHT22;8556;52.218;9.884;2023-03-23T06:05:54;11.60;99.90
16879;DHT22;8556;52.218;9.884;2023-03-23T06:08:22;11.60;99.90
16879;DHT22;8556;52.218;9.884;2023-03-23T06:10:49;11.60;99.90
16879;DHT22;8556;52.218;9.884;2023-03-23T06:13:16;11.60;99.90
16879;DHT22;8556;52.218;9.884;2023-03-23T06:15:43;11.60;99.90
16879;DHT22;8556;52.218;9.884;2023-03-23T06:18:09;11.60;99.90
16879;DHT22;8556;52.218;9.884;2023-03-23T06:20:38;11.60;99.90
16879;DHT22;8556;52.218;9.884;2023-03-23T06:23:06;11.60;99.90
16879;DHT22;8556;52.218;9.884;2023-03-23T06:25:35;11.80;99.90
16879;DHT22;8556;52.218;9.884;2023-03-23T06:28:02;11.80;99.90
16879;DHT22;8556;52.218;9.884;2023-03-23T06:30:29;11.90;99.90
16879;DHT22;8556;52.218;9.884;2023-03-23T06:32:56;11.80;99.90
16879;DHT22;8556;52.218;9.884;2023-03-23T06:35:23;11.80;99.90
16879;DHT22;8556;52.218;9.884;2023-03-23T06:37:50;11.90;99.90
16879;DHT22;8556;52.218;9.884;2023-03-23T06:40:19;11.80;99.90
16879;DHT22;8556;52.218;9.884;2023-03-23T06:42:48;11.90;99.90
16879;DHT22;8556;52.218;9.884;2023-03-23T06:45:15;11.90;99.90
16879;DHT22;8556;52.218;9.884;2023-03-23T06:47:45;12.00;99.90
16879;DHT22;8556;52.218;9.884;2023-03-23T06:50:14;12.00;99.90
16879;DHT22;8556;52.218;9.884;2023-03-23T06:52:40;12.20;99.90
16879;DHT22;8556;52.218;9.884;2023-03-23T06:55:08;12.20;99.90
16879;DHT22;8556;52.218;9.884;2023-03-23T06:57:35;12.50;99.90
16879;DHT22;8556;52.218;9.884;2023-03-23T07:00:03;12.50;99.90
16879;DHT22;8556;52.218;9.884;2023-03-23T07:02:39;12.50;99.90
16879;DHT22;8556;52.218;9.884;2023-03-23T07:05:06;12.60;99.90
16879;DHT22;8556;52.218;9.884;2023-03-23T07:07:34;12.70;99.90
16879;DHT22;8556;52.218;9.884;2023-03-23T07:10:01;12.80;99.90
16879;DHT22;8556;52.218;9.884;2023-03-23T07:12:28;12.90;99.90
16879;DHT22;8556;52.218;9.884;2023-03-23T07:14:55;12.70;99.90
16879;DHT22;8556;52.218;9.884;2023-03-23T07:17:23;12.70;99.90
16879;DHT22;8556;52.218;9.884;2023-03-23T07:19:50;12.60;99.90
16879;DHT22;8556;52.218;9.884;2023-03-23T07:22:17;12.60;99.90
16879;DHT22;8556;52.218;9.884;2023-03-23T07:24:44;12.60;99.90
16879;DHT22;8556;52.218;9.884;2023-03-23T07:27:11;12.60;99.90
16879;DHT22;8556;52.218;9.884;2023-03-23T07:29:37;12.70;99.90
16879;DHT22;8556;52.218;9.884;2023-03-23T07:32:05;12.90;99.90
16879;DHT22;8556;52.218;9.884;2023-03-23T07:34:33;12.90;99.90
16879;DHT22;8556;52.218;9.884;2023-03-23T07:37:00;13.00;99.90
16879;DHT22;8556;52.218;9.884;2023-03-23T07:39:27;13.10;99.90
16879;DHT22;8556;52.218;9.884;2023-03-23T07:41:54;13.20;99.90
16879;DHT22;8556;52.218;9.884;2023-03-23T07:44:22;13.50;99.90
16879;DHT22;8556;52.218;9.884;2023-03-23T07:46:49;13.40;99.90
16879;DHT22;8556;52.218;9.884;2023-03-23T07:49:16;13.70;99.90
16879;DHT22;8556;52.218;9.884;2023-03-23T07:51:45;13.90;99.90
16879;DHT22;8556;52.218;9.884;2023-03-23T07:54:12;14.20;99.90
16879;DHT22;8556;52.218;9.884;2023-03-23T07:56:40;14.70;99.90
16879;DHT22;8556;52.218;9.884;2023-03-23T07:59:07;14.70;99.90
16879;DHT22;8556;52.218;9.884;2023-03-23T08:01:35;14.50;99.90
16879;DHT22;8556;52.218;9.884;2023-03-23T08:04:02;14.10;99.90
16879;DHT22;8556;52.218;9.884;2023-03-23T08:06:32;14.10;99.90
16879;DHT22;8556;52.218;9.884;2023-03-23T08:09:01;14.10;99.90
16879;DHT22;8556;52.218;9.884;2023-03-23T08:11:32;14.10;99.90
16879;DHT22;8556;52.218;9.884;2023-03-23T08:13:59;14.10;99.90
16879;DHT22;8556;52.218;9.884;2023-03-23T08:16:26;14.00;99.90
16879;DHT22;8556;52.218;9.884;2023-03-23T08:18:53;14.00;99.90
16879;DHT22;8556;52.218;9.884;2023-03-23T08:21:20;14.00;99.90
16879;DHT22;8556;52.218;9.884;2023-03-23T08:23:47;14.20;99.90
16879;DHT22;8556;52.218;9.884;2023-03-23T08:26:16;14.10;99.90
16879;DHT22;8556;52.218;9.884;2023-03-23T08:28:43;14.20;99.90
16879;DHT22;8556;52.218;9.884;2023-03-23T08:31:11;14.20;99.90
16879;DHT22;8556;52.218;9.884;2023-03-23T08:33:39;14.10;99.90
16879;DHT22;8556;52.218;9.884;2023-03-23T08:36:07;14.00;99.90
16879;DHT22;8556;52.218;9.884;2023-03-23T08:38:34;14.10;99.90
16879;DHT22;8556;52.218;9.884;2023-03-23T08:41:03;14.10;99.90
16879;DHT22;8556;52.218;9.884;2023-03-23T08:43:31;14.00;99.90
16879;DHT22;8556;52.218;9.884;2023-03-23T08:46:00;14.00;99.90
16879;DHT22;8556;52.218;9.884;2023-03-23T08:48:27;14.10;99.90
16879;DHT22;8556;52.218;9.884;2023-03-23T08:50:54;14.10;99.90
16879;DHT22;8556;52.218;9.884;2023-03-23T08:53:21;14.10;99.90
16879;DHT22;8556;52.218;9.884;2023-03-23T08:55:48;14.10;99.90
16879;DHT22;8556;52.218;9.884;2023-03-23T08:58:15;14.10;99.90
16879;DHT22;8556;52.218;9.884;2023-03-23T09:00:44;14.20;99.90
16879;DHT22;8556;52.218;9.884;2023-03-23T09:03:11;14.20;99.90
16879;DHT22;8556;52.218;9.884;2023-03-23T09:05:38;14.20;99.90
16879;DHT22;8556;52.218;9.884;2023-03-23T09:08:11;14.30;99.90
16879;DHT22;8556;52.218;9.884;2023-03-23T09:10:39;14.30;99.90
16879;DHT22;8556;52.218;9.884;2023-03-23T09:13:06;14.40;99.90
16879;DHT22;8556;52.218;9.884;2023-03-23T09:15:32;14.30;99.90
16879;DHT22;8556;52.218;9.884;2023-03-23T09:18:01;14.30;99.90
16879;DHT22;8556;52.218;9.884;2023-03-23T09:20:29;14.20;99.90
16879;DHT22;8556;52.218;9.884;2023-03-23T09:22:57;14.20;99.90
16879;DHT22;8556;52.218;9.884;2023-03-23T09:25:25;14.20;99.90
16879;DHT22;8556;52.218;9.884;2023-03-23T09:27:54;14.20;99.90
16879;DHT22;8556;52.218;9.884;2023-03-23T09:30:22;14.20;99.90
16879;DHT22;8556;52.218;9.884;2023-03-23T09:32:49;14.30;99.90
16879;DHT22;8556;52.218;9.884;2023-03-23T09:35:18;14.30;99.90
16879;DHT22;8556;52.218;9.884;2023-03-23T09:37:47;14.30;99.90
16879;DHT22;8556;52.218;9.884;2023-03-23T09:40:18;14.40;99.90
16879;DHT22;8556;52.218;9.884;2023-03-23T09:42:57;14.30;99.90
16879;DHT22;8556;52.218;9.884;2023-03-23T09:45:28;14.40;99.90
16879;DHT22;8556;52.218;9.884;2023-03-23T09:48:07;14.40;99.90
16879;DHT22;8556;52.218;9.884;2023-03-23T09:50:40;14.50;99.90
16879;DHT22;8556;52.218;9.884;2023-03-23T09:53:14;14.50;99.90
16879;DHT22;8556;52.218;9.884;2023-03-23T09:55:42;14.50;99.90
16879;DHT22;8556;52.218;9.884;2023-03-23T09:58:14;14.50;99.90
16879;DHT22;8556;52.218;9.884;2023-03-23T10:00:55;14.60;99.90
16879;DHT22;8556;52.218;9.884;2023-03-23T10:03:27;14.60;99.90
16879;DHT22;8556;52.218;9.884;2023-03-23T10:05:58;14.70;99.90
16879;DHT22;8556;52.218;9.884;2023-03-23T10:08:27;14.90;99.90
16879;DHT22;8556;52.218;9.884;2023-03-23T10:10:59;15.00;99.90
16879;DHT22;8556;52.218;9.884;2023-03-23T10:13:42;15.00;99.90
16879;DHT22;8556;52.218;9.884;2023-03-23T10:16:14;15.10;99.90
16879;DHT22;8556;52.218;9.884;2023-03-23T10:18:47;15.20;99.90
16879;DHT22;8556;52.218;9.884;2023-03-23T10:21:21;15.00;99.90
16879;DHT22;8556;52.218;9.884;2023-03-23T10:23:53;14.80;99.90
16879;DHT22;8556;52.218;9.884;2023-03-23T10:26:28;14.70;99.90
16879;DHT22;8556;52.218;9.884;2023-03-23T10:28:59;14.60;99.90
16879;DHT22;8556;52.218;9.884;2023-03-23T10:31:31;14.70;99.90
16879;DHT22;8556;52.218;9.884;2023-03-23T10:34:02;14.60;99.90
16879;DHT22;8556;52.218;9.884;2023-03-23T10:36:35;14.70;99.90
16879;DHT22;8556;52.218;9.884;2023-03-23T10:39:09;14.70;99.90
16879;DHT22;8556;52.218;9.884;2023-03-23T10:41:38;14.70;99.90
16879;DHT22;8556;52.218;9.884;2023-03-23T10:44:15;14.70;99.90
16879;DHT22;8556;52.218;9.884;2023-03-23T10:46:45;14.70;99.90
16879;DHT22;8556;52.218;9.884;2023-03-23T10:49:18;14.80;99.90
16879;DHT22;8556;52.218;9.884;2023-03-23T10:51:53;14.80;99.90
16879;DHT22;8556;52.218;9.884;2023-03-23T10:54:31;14.90;99.90
16879;DHT22;8556;52.218;9.884;2023-03-23T10:56:59;15.00;99.90
16879;DHT22;8556;52.218;9.884;2023-03-23T10:59:27;15.20;99.90
16879;DHT22;8556;52.218;9.884;2023-03-23T11:01:56;15.50;99.90
16879;DHT22;8556;52.218;9.884;2023-03-23T11:04:25;16.10;99.90
16879;DHT22;8556;52.218;9.884;2023-03-23T11:06:58;16.50;99.90
16879;DHT22;8556;52.218;9.884;2023-03-23T11:09:35;16.50;99.90
16879;DHT22;8556;52.218;9.884;2023-03-23T11:12:02;16.90;99.90
16879;DHT22;8556;52.218;9.884;2023-03-23T11:14:30;17.20;99.90
16879;DHT22;8556;52.218;9.884;2023-03-23T11:17:00;17.00;99.90
16879;DHT22;8556;52.218;9.884;2023-03-23T11:19:30;17.00;99.90
16879;DHT22;8556;52.218;9.884;2023-03-23T11:22:08;17.60;99.90
16879;DHT22;8556;52.218;9.884;2023-03-23T11:24:37;17.70;99.90
16879;DHT22;8556;52.218;9.884;2023-03-23T11:27:07;18.00;99.90
16879;DHT22;8556;52.218;9.884;2023-03-23T11:29:36;18.10;1.00
16879;DHT22;8556;52.218;9.884;2023-03-23T11:32:06;17.90;1.00
16879;DHT22;8556;52.218;9.884;2023-03-23T11:34:40;18.00;1.00
16879;DHT22;8556;52.218;9.884;2023-03-23T11:37:11;18.00;1.00
16879;DHT22;8556;52.218;9.884;2023-03-23T11:39:55;17.60;99.90
16879;DHT22;8556;52.218;9.884;2023-03-23T11:42:25;17.90;99.90
16879;DHT22;8556;52.218;9.884;2023-03-23T11:44:54;17.60;1.00
16879;DHT22;8556;52.218;9.884;2023-03-23T11:47:28;17.70;1.00
16879;DHT22;8556;52.218;9.884;2023-03-23T11:50:00;18.20;1.00
16879;DHT22;8556;52.218;9.884;2023-03-23T11:52:36;18.30;1.00
16879;DHT22;8556;52.218;9.884;2023-03-23T11:55:12;18.30;1.00
16879;DHT22;8556;52.218;9.884;2023-03-23T11:57:40;18.10;99.90
16879;DHT22;8556;52.218;9.884;2023-03-23T12:00:15;17.60;99.90
16879;DHT22;8556;52.218;9.884;2023-03-23T12:05:51;17.30;1.00
16879;DHT22;8556;52.218;9.884;2023-03-23T12:08:35;17.30;1.00
16879;DHT22;8556;52.218;9.884;2023-03-23T12:11:14;16.90;1.00
16879;DHT22;8556;52.218;9.884;2023-03-23T12:14:08;16.60;1.00
16879;DHT22;8556;52.218;9.884;2023-03-23T12:16:45;16.60;99.90
16879;DHT22;8556;52.218;9.884;2023-03-23T12:19:22;16.30;99.90
16879;DHT22;8556;52.218;9.884;2023-03-23T12:21:57;16.40;99.90
16879;DHT22;8556;52.218;9.884;2023-03-23T12:24:45;16.30;1.00
16879;DHT22;8556;52.218;9.884;2023-03-23T12:27:20;16.30;99.90
16879;DHT22;8556;52.218;9.884;2023-03-23T12:30:00;16.20;1.00
16879;DHT22;8556;52.218;9.884;2023-03-23T12:32:50;16.00;1.00
16879;DHT22;8556;52.218;9.884;2023-03-23T12:35:32;15.90;1.00
16879;DHT22;8556;52.218;9.884;2023-03-23T12:38:13;15.60;1.00
16879;DHT22;8556;52.218;9.884;2023-03-23T12:40:51;15.30;1.00
16879;DHT22;8556;52.218;9.884;2023-03-23T12:43:27;14.80;94.10
16879;DHT22;8556;52.218;9.884;2023-03-23T12:46:25;14.60;99.90
16879;DHT22;8556;52.218;9.884;2023-03-23T12:48:57;14.80;73.10
16879;DHT22;8556;52.218;9.884;2023-03-23T12:51:32;14.60;99.90
16879;DHT22;8556;52.218;9.884;2023-03-23T12:54:14;14.70;99.90
16879;DHT22;8556;52.218;9.884;2023-03-23T12:56:49;14.40;99.90
16879;DHT22;8556;52.218;9.884;2023-03-23T12:59:22;13.80;99.90
16879;DHT22;8556;52.218;9.884;2023-03-23T13:01:54;13.40;99.90
16879;DHT22;8556;52.218;9.884;2023-03-23T13:04:25;13.40;99.90
16879;DHT22;8556;52.218;9.884;2023-03-23T13:06:53;13.30;99.90
16879;DHT22;8556;52.218;9.884;2023-03-23T13:09:24;13.20;99.90
16879;DHT22;8556;52.218;9.884;2023-03-23T13:11:56;13.10;99.90
16879;DHT22;8556;52.218;9.884;2023-03-23T13:14:32;13.30;99.90
16879;DHT22;8556;52.218;9.884;2023-03-23T13:17:09;13.40;99.90
16879;DHT22;8556;52.218;9.884;2023-03-23T13:19:58;13.40;99.90
16879;DHT22;8556;52.218;9.884;2023-03-23T13:22:31;13.40;99.90
16879;DHT22;8556;52.218;9.884;2023-03-23T13:25:02;13.50;99.90
16879;DHT22;8556;52.218;9.884;2023-03-23T13:27:31;14.00;99.90
16879;DHT22;8556;52.218;9.884;2023-03-23T13:29:59;13.90;99.90
16879;DHT22;8556;52.218;9.884;2023-03-23T13:32:34;14.00;99.90
16879;DHT22;8556;52.218;9.884;2023-03-23T13:35:12;13.90;99.90
16879;DHT22;8556;52.218;9.884;2023-03-23T13:37:44;13.90;99.90
16879;DHT22;8556;52.218;9.884;2023-03-23T13:40:23;13.90;99.90
16879;DHT22;8556;52.218;9.884;2023-03-23T13:42:54;13.90;99.90
16879;DHT22;8556;52.218;9.884;2023-03-23T13:45:23;13.90;99.90
16879;DHT22;8556;52.218;9.884;2023-03-23T13:48:02;14.00;99.90
16879;DHT22;8556;52.218;9.884;2023-03-23T13:50:30;14.00;99.90
16879;DHT22;8556;52.218;9.884;2023-03-23T13:52:59;13.90;99.90
16879;DHT22;8556;52.218;9.884;2023-03-23T13:55:39;13.80;99.90
16879;DHT22;8556;52.218;9.884;2023-03-23T13:58:20;13.80;99.90
16879;DHT22;8556;52.218;9.884;2023-03-23T14:00:50;13.90;99.90
16879;DHT22;8556;52.218;9.884;2023-03-23T14:03:25;13.70;99.90
16879;DHT22;8556;52.218;9.884;2023-03-23T14:06:02;13.60;99.90
16879;DHT22;8556;52.218;9.884;2023-03-23T14:08:39;13.40;99.90
16879;DHT22;8556;52.218;9.884;2023-03-23T14:11:18;13.40;99.90
16879;DHT22;8556;52.218;9.884;2023-03-23T14:13:56;13.30;99.90
16879;DHT22;8556;52.218;9.884;2023-03-23T14:16:27;13.30;99.90
16879;DHT22;8556;52.218;9.884;2023-03-23T14:18:59;13.40;99.90
16879;DHT22;8556;52.218;9.884;2023-03-23T14:21:33;13.20;99.90
16879;DHT22;8556;52.218;9.884;2023-03-23T14:24:09;13.10;99.90
16879;DHT22;8556;52.218;9.884;2023-03-23T14:26:37;13.10;99.90
16879;DHT22;8556;52.218;9.884;2023-03-23T14:29:06;13.10;99.90
16879;DHT22;8556;52.218;9.884;2023-03-23T14:31:35;12.90;99.90
16879;DHT22;8556;52.218;9.884;2023-03-23T14:34:04;12.80;99.90
16879;DHT22;8556;52.218;9.884;2023-03-23T14:36:35;12.90;99.90
16879;DHT22;8556;52.218;9.884;2023-03-23T14:39:05;12.70;99.90
16879;DHT22;8556;52.218;9.884;2023-03-23T14:41:35;12.70;99.90
16879;DHT22;8556;52.218;9.884;2023-03-23T14:44:05;12.70;99.90
16879;DHT22;8556;52.218;9.884;2023-03-23T14:46:32;12.60;99.90
16879;DHT22;8556;52.218;9.884;2023-03-23T14:49:01;12.60;99.90
16879;DHT22;8556;52.218;9.884;2023-03-23T14:51:29;12.60;99.90
16879;DHT22;8556;52.218;9.884;2023-03-23T14:53:58;12.40;99.90
16879;DHT22;8556;52.218;9.884;2023-03-23T14:56:33;12.20;99.90
16879;DHT22;8556;52.218;9.884;2023-03-23T14:59:05;12.10;99.90
16879;DHT22;8556;52.218;9.884;2023-03-23T15:01:36;12.00;99.90
16879;DHT22;8556;52.218;9.884;2023-03-23T15:04:06;12.00;99.90
16879;DHT22;8556;52.218;9.884;2023-03-23T15:06:37;12.00;99.90
16879;DHT22;8556;52.218;9.884;2023-03-23T15:09:06;12.10;99.90
16879;DHT22;8556;52.218;9.884;2023-03-23T15:11:37;12.20;99.90
16879;DHT22;8556;52.218;9.884;2023-03-23T15:14:15;12.40;99.90
16879;DHT22;8556;52.218;9.884;2023-03-23T15:16:46;12.30;99.90
16879;DHT22;8556;52.218;9.884;2023-03-23T15:19:16;12.40;99.90
16879;DHT22;8556;52.218;9.884;2023-03-23T15:21:49;12.40;99.90
16879;DHT22;8556;52.218;9.884;2023-03-23T15:24:25;12.40;99.90
16879;DHT22;8556;52.218;9.884;2023-03-23T15:26:52;12.50;99.90
16879;DHT22;8556;52.218;9.884;2023-03-23T15:29:22;12.60;99.90
16879;DHT22;8556;52.218;9.884;2023-03-23T15:31:51;12.50;99.90
16879;DHT22;8556;52.218;9.884;2023-03-23T15:34:25;12.50;99.90
16879;DHT22;8556;52.218;9.884;2023-03-23T15:36:56;12.60;99.90
16879;DHT22;8556;52.218;9.884;2023-03-23T15:39:23;12.50;99.90
16879;DHT22;8556;52.218;9.884;2023-03-23T15:41:52;12.60;99.90
16879;DHT22;8556;52.218;9.884;2023-03-23T15:44:26;12.70;99.90
16879;DHT22;8556;52.218;9.884;2023-03-23T15:47:01;12.60;99.90
16879;DHT22;8556;52.218;9.884;2023-03-23T15:49:29;12.60;99.90
16879;DHT22;8556;52.218;9.884;2023-03-23T15:51:56;12.80;99.90
16879;DHT22;8556;52.218;9.884;2023-03-23T15:54:23;12.90;99.90
16879;DHT22;8556;52.218;9.884;2023-03-23T15:56:50;12.90;99.90
16879;DHT22;8556;52.218;9.884;2023-03-23T15:59:17;12.90;99.90
16879;DHT22;8556;52.218;9.884;2023-03-23T16:01:45;12.90;99.90
16879;DHT22;8556;52.218;9.884;2023-03-23T16:04:15;13.00;99.90
16879;DHT22;8556;52.218;9.884;2023-03-23T16:06:42;13.20;99.90
16879;DHT22;8556;52.218;9.884;2023-03-23T16:09:13;13.30;99.90
16879;DHT22;8556;52.218;9.884;2023-03-23T16:11:41;13.40;99.90
16879;DHT22;8556;52.218;9.884;2023-03-23T16:14:08;13.30;99.90
16879;DHT22;8556;52.218;9.884;2023-03-23T16:16:37;13.20;99.90
16879;DHT22;8556;52.218;9.884;2023-03-23T16:19:06;13.10;99.90
16879;DHT22;8556;52.218;9.884;2023-03-23T16:21:34;13.00;99.90